createdAt,value
2018-06-18T00:00:43.135Z,4.77
2018-06-18T00:03:11.913Z,7.20
2018-06-18T00:05:40.529Z,3.97
2018-06-18T00:08:09.085Z,5.67
2018-06-18T00:10:37.624Z,10.63
2018-06-18T00:13:06.417Z,8.67
2018-06-18T00:15:34.947Z,8.90
2018-06-18T00:18:03.384Z,6.00
2018-06-18T00:20:32.193Z,8.27
2018-06-18T00:23:00.822Z,9.20
2018-06-18T00:25:29.509Z,7.00
2018-06-18T00:27:58.241Z,8.33
2018-06-18T00:30:26.887Z,5.40
2018-06-18T00:32:55.420Z,9.90
2018-06-18T00:35:24.422Z,7.00
2018-06-18T00:37:53.062Z,10.73
2018-06-18T00:40:21.903Z,12.40
2018-06-18T00:42:50.598Z,7.77
2018-06-18T00:45:19.214Z,5.37
2018-06-18T00:47:48.015Z,6.00
2018-06-18T00:50:16.524Z,8.37
2018-06-18T00:52:45.331Z,9.17
2018-06-18T00:55:23.805Z,10.63
2018-06-18T00:57:52.345Z,8.77
2018-06-18T01:00:20.881Z,11.33
2018-06-18T01:02:49.488Z,12.97
2018-06-18T01:05:18.039Z,8.30
2018-06-18T01:07:46.562Z,6.60
2018-06-18T01:10:15.070Z,5.63
2018-06-18T01:12:43.644Z,10.17
2018-06-18T01:15:12.768Z,9.73
2018-06-18T01:17:41.385Z,6.77
2018-06-18T01:20:09.951Z,9.00
2018-06-18T01:22:41.655Z,8.43
2018-06-18T01:25:10.138Z,10.13
2018-06-18T01:27:38.682Z,15.50
2018-06-18T01:30:07.700Z,9.53
2018-06-18T01:32:36.353Z,9.00
2018-06-18T01:35:04.925Z,8.97
2018-06-18T01:37:33.465Z,10.60
2018-06-18T01:40:02.023Z,10.23
2018-06-18T01:42:30.518Z,10.50
2018-06-18T01:44:59.274Z,9.60
2018-06-18T01:47:28.318Z,11.43
2018-06-18T01:49:56.839Z,9.30
2018-06-18T01:52:25.506Z,12.10
2018-06-18T01:54:54.023Z,7.63
2018-06-18T01:57:22.499Z,11.97
2018-06-18T01:59:51.029Z,9.67
2018-06-18T02:02:19.831Z,10.00
2018-06-18T02:04:48.678Z,11.63
2018-06-18T02:07:17.369Z,10.37
2018-06-18T02:09:45.933Z,7.93
2018-06-18T02:12:14.430Z,8.27
2018-06-18T02:14:42.950Z,6.60
2018-06-18T02:17:11.413Z,15.13
2018-06-18T02:19:39.918Z,10.33
2018-06-18T02:22:08.493Z,11.03
2018-06-18T02:24:37.002Z,8.20
2018-06-18T02:27:10.786Z,12.30
2018-06-18T02:29:44.561Z,14.57
2018-06-18T02:32:18.376Z,13.77
2018-06-18T02:34:52.247Z,12.43
2018-06-18T02:37:26.162Z,10.97
2018-06-18T02:39:59.980Z,11.60
2018-06-18T02:42:28.780Z,11.63
2018-06-18T02:44:57.419Z,11.03
2018-06-18T02:47:26.065Z,9.63
2018-06-18T02:49:54.815Z,13.07
2018-06-18T02:52:23.437Z,8.87
2018-06-18T02:54:52.143Z,11.47
2018-06-18T02:57:20.675Z,14.33
2018-06-18T02:59:49.464Z,11.60
2018-06-18T03:02:17.984Z,11.97
2018-06-18T03:04:46.799Z,10.20
2018-06-18T03:07:15.562Z,12.00
2018-06-18T03:09:44.164Z,11.40
2018-06-18T03:12:12.725Z,10.87
2018-06-18T03:14:41.317Z,11.57
2018-06-18T03:17:09.986Z,16.33
2018-06-18T03:19:43.870Z,12.77
2018-06-18T03:22:17.706Z,15.00
2018-06-18T03:24:51.349Z,12.37
2018-06-18T03:27:25.092Z,15.23
2018-06-18T03:29:53.660Z,13.87
2018-06-18T03:32:22.635Z,13.70
2018-06-18T03:34:51.446Z,12.03
2018-06-18T03:37:21.319Z,11.80
2018-06-18T03:39:50.504Z,14.53
2018-06-18T03:42:19.201Z,11.57
2018-06-18T03:45:51.041Z,12.33
2018-06-18T03:48:19.680Z,13.50
2018-06-18T03:50:48.421Z,15.70
2018-06-18T03:53:17.106Z,12.43
2018-06-18T03:56:01.618Z,14.57
2018-06-18T03:58:30.371Z,27.63
2018-06-18T04:01:37.869Z,12.80
2018-06-18T04:04:13.491Z,14.23
2018-06-18T04:06:47.428Z,10.37
2018-06-18T04:09:21.492Z,8.07
2018-06-18T04:11:55.599Z,12.37
2018-06-18T04:14:24.222Z,8.93
2018-06-18T04:16:52.797Z,13.17
2018-06-18T04:19:21.468Z,13.10
2018-06-18T04:21:50.097Z,13.80
2018-06-18T04:24:18.660Z,11.47
2018-06-18T04:26:47.344Z,12.73
2018-06-18T04:29:16.424Z,12.03
2018-06-18T04:31:45.354Z,12.97
2018-06-18T04:34:25.879Z,12.53
2018-06-18T04:36:54.882Z,12.90
2018-06-18T04:39:23.419Z,12.97
2018-06-18T04:44:03.752Z,16.20
2018-06-18T04:46:37.642Z,11.03
2018-06-18T04:49:11.476Z,9.73
2018-06-18T04:51:40.090Z,13.60
2018-06-18T04:54:08.837Z,8.60
2018-06-18T04:56:37.748Z,11.07
2018-06-18T04:59:06.331Z,11.03
2018-06-18T05:01:35.125Z,14.50
2018-06-18T05:04:03.819Z,12.57
2018-06-18T05:06:32.981Z,10.20
2018-06-18T05:09:18.322Z,11.13
2018-06-18T05:11:46.986Z,11.27
2018-06-18T05:14:15.747Z,12.07
2018-06-18T05:16:44.318Z,10.90
2018-06-18T05:19:12.949Z,12.37
2018-06-18T05:21:41.451Z,10.37
2018-06-18T05:24:09.987Z,14.73
2018-06-18T05:26:41.763Z,13.90
2018-06-18T05:29:10.389Z,11.03
2018-06-18T05:31:38.990Z,10.20
2018-06-18T05:34:08.039Z,9.40
2018-06-18T05:36:36.672Z,11.60
2018-06-18T05:39:08.159Z,15.03
2018-06-18T05:41:36.761Z,9.17
2018-06-18T05:44:05.387Z,10.90
2018-06-18T05:46:33.971Z,7.83
2018-06-18T05:49:02.629Z,7.83
2018-06-18T05:51:31.187Z,9.43
2018-06-18T05:53:59.815Z,11.50
2018-06-18T05:56:28.431Z,7.63
2018-06-18T05:58:57.017Z,11.87
2018-06-18T06:01:25.758Z,12.57
2018-06-18T06:03:54.486Z,9.37
2018-06-18T06:06:23.109Z,7.17
2018-06-18T06:08:51.625Z,10.60
2018-06-18T06:11:20.136Z,8.90
2018-06-18T06:13:48.770Z,9.00
2018-06-18T06:16:17.264Z,8.70
2018-06-18T06:18:45.796Z,8.90
2018-06-18T06:21:15.431Z,12.07
2018-06-18T06:23:44.785Z,12.20
2018-06-18T06:26:13.664Z,18.73
2018-06-18T06:28:42.284Z,16.73
2018-06-18T06:31:10.905Z,9.43
2018-06-18T06:33:39.453Z,13.43
2018-06-18T06:36:09.215Z,7.23
2018-06-18T06:38:38.205Z,11.50
2018-06-18T06:41:07.497Z,10.20
2018-06-18T06:43:36.279Z,6.53
2018-06-18T06:46:04.822Z,7.17
2018-06-18T06:48:33.357Z,9.70
2018-06-18T06:51:01.946Z,10.93
2018-06-18T06:53:30.551Z,9.00
2018-06-18T06:55:59.118Z,6.47
2018-06-18T06:58:27.745Z,8.13
2018-06-18T07:00:56.224Z,6.60
2018-06-18T07:03:24.778Z,7.67
2018-06-18T07:05:53.329Z,9.77
2018-06-18T07:08:22.393Z,7.60
2018-06-18T07:10:50.929Z,11.40
2018-06-18T07:13:19.565Z,10.37
2018-06-18T07:15:48.079Z,8.07
2018-06-18T07:18:17.075Z,10.63
2018-06-18T07:20:45.577Z,9.87
2018-06-18T07:23:15.743Z,13.27
2018-06-18T07:25:44.278Z,13.00
2018-06-18T07:28:15.161Z,10.67
2018-06-18T07:30:43.682Z,8.57
2018-06-18T07:33:12.739Z,11.93
2018-06-18T07:35:41.346Z,7.87
2018-06-18T07:38:11.136Z,5.77
2018-06-18T07:40:39.728Z,6.93
2018-06-18T07:43:09.665Z,7.67
2018-06-18T07:45:38.203Z,10.83
2018-06-18T07:48:06.797Z,9.50
2018-06-18T07:50:35.293Z,5.43
2018-06-18T07:53:05.377Z,8.80
2018-06-18T07:55:33.872Z,9.23
2018-06-18T07:58:04.915Z,16.47
2018-06-18T08:00:33.470Z,8.40
2018-06-18T08:03:04.588Z,5.70
2018-06-18T08:05:33.246Z,6.17
2018-06-18T08:08:01.782Z,8.03
2018-06-18T08:10:30.415Z,10.17
2018-06-18T08:13:00.078Z,11.23
2018-06-18T08:15:28.632Z,9.53
2018-06-18T08:17:57.739Z,8.57
2018-06-18T08:20:26.341Z,8.13
2018-06-18T08:22:57.028Z,9.57
2018-06-18T08:25:25.691Z,9.33
2018-06-18T08:27:54.363Z,8.57
2018-06-18T08:30:22.946Z,10.30
2018-06-18T08:32:52.976Z,13.17
2018-06-18T08:35:21.585Z,7.43
2018-06-18T08:37:50.216Z,7.30
2018-06-18T08:40:18.822Z,7.00
2018-06-18T08:42:49.822Z,7.20
2018-06-18T08:45:18.405Z,9.50
2018-06-18T08:47:48.832Z,7.33
2018-06-18T08:50:22.527Z,4.67
2018-06-18T08:52:56.417Z,5.97
2018-06-18T08:55:30.290Z,11.47
2018-06-18T08:58:03.975Z,6.17
2018-06-18T09:00:37.799Z,7.27
2018-06-18T09:03:16.561Z,5.57
2018-06-18T09:05:49.374Z,6.70
2018-06-18T09:08:23.722Z,8.90
2018-06-18T09:10:53.184Z,7.67
2018-06-18T09:13:21.869Z,6.47
2018-06-18T09:15:50.335Z,7.57
2018-06-18T09:18:18.849Z,4.40
2018-06-18T09:20:47.350Z,10.90
2018-06-18T09:23:15.827Z,5.43
2018-06-18T09:25:49.519Z,7.43
2018-06-18T09:28:18.102Z,6.97
2018-06-18T09:30:46.752Z,12.47
2018-06-18T09:33:15.411Z,5.67
2018-06-18T09:35:43.965Z,10.00
2018-06-18T09:38:12.585Z,13.27
2018-06-18T09:40:41.371Z,8.33
2018-06-18T09:43:09.983Z,7.47
2018-06-18T09:45:38.509Z,5.27
2018-06-18T09:48:07.324Z,10.83
2018-06-18T09:50:41.066Z,4.17
2018-06-18T09:53:14.871Z,6.23
2018-06-18T09:55:48.807Z,6.90
2018-06-18T09:58:22.488Z,7.00
2018-06-18T10:01:07.759Z,9.17
2018-06-18T10:03:36.307Z,4.47
2018-06-18T10:06:05.681Z,5.30
2018-06-18T10:08:34.283Z,6.03
2018-06-18T10:11:02.790Z,10.20
2018-06-18T10:13:31.359Z,5.40
2018-06-18T10:16:00.243Z,6.10
2018-06-18T10:18:28.858Z,6.20
2018-06-18T10:20:57.461Z,4.17
2018-06-18T10:23:27.178Z,6.90
2018-06-18T10:25:55.804Z,5.87
2018-06-18T10:28:24.464Z,4.13
2018-06-18T10:30:53.097Z,4.73
2018-06-18T10:33:27.045Z,5.33
2018-06-18T10:36:00.843Z,8.20
2018-06-18T10:38:34.643Z,5.50
2018-06-18T10:41:08.466Z,5.17
2018-06-18T10:43:37.752Z,8.30
2018-06-18T10:46:06.372Z,7.73
2018-06-18T10:48:34.907Z,3.10
2018-06-18T10:51:03.427Z,3.63
2018-06-18T10:53:32.019Z,3.70
2018-06-18T10:56:00.645Z,6.10
2018-06-18T10:58:29.185Z,6.17
2018-06-18T11:01:05.613Z,3.67
2018-06-18T11:03:34.110Z,8.23
2018-06-18T11:06:07.907Z,3.73
2018-06-18T11:08:36.448Z,5.33
2018-06-18T11:11:06.483Z,4.30
2018-06-18T11:13:35.068Z,4.37
2018-06-18T11:16:04.147Z,4.07
2018-06-18T11:18:38.013Z,9.03
2018-06-18T11:21:11.999Z,2.67
2018-06-18T11:23:45.672Z,5.70
2018-06-18T11:26:19.617Z,9.00
2018-06-18T11:28:48.191Z,3.67
2018-06-18T11:31:16.918Z,3.63
2018-06-18T11:33:45.585Z,6.77
2018-06-18T11:36:14.145Z,4.03
2018-06-18T11:38:42.857Z,3.03
2018-06-18T11:41:11.469Z,4.80
2018-06-18T11:43:40.090Z,3.47
2018-06-18T11:46:08.744Z,6.27
2018-06-18T11:48:37.369Z,5.23
2018-06-18T11:51:06.058Z,9.87
2018-06-18T11:53:34.841Z,3.63
2018-06-18T11:56:03.482Z,7.30
2018-06-18T11:58:37.275Z,5.73
2018-06-18T12:01:11.313Z,4.10
2018-06-18T12:03:45.203Z,7.47
2018-06-18T12:06:19.056Z,6.57
2018-06-18T12:08:53.940Z,7.37
2018-06-18T12:11:22.632Z,3.70
2018-06-18T12:13:51.249Z,7.30
2018-06-18T12:16:19.935Z,9.53
2018-06-18T12:18:48.548Z,3.40
2018-06-18T12:21:17.093Z,8.13
2018-06-18T12:23:46.278Z,9.77
2018-06-18T12:26:14.853Z,8.23
2018-06-18T12:28:43.443Z,2.30
2018-06-18T12:31:12.087Z,6.23
2018-06-18T12:33:40.697Z,4.43
2018-06-18T12:36:09.892Z,8.20
2018-06-18T12:38:40.206Z,5.53
2018-06-18T12:41:09.630Z,4.07
2018-06-18T12:43:40.363Z,7.33
2018-06-18T12:46:14.081Z,4.17
2018-06-18T12:48:47.935Z,3.43
2018-06-18T12:51:21.579Z,5.50
2018-06-18T12:53:55.433Z,5.50
2018-06-18T12:56:29.231Z,5.33
2018-06-18T12:58:57.762Z,3.43
2018-06-18T13:01:28.638Z,3.33
2018-06-18T13:03:57.206Z,3.43
2018-06-18T13:06:25.851Z,5.63
2018-06-18T13:08:54.374Z,8.80
2018-06-18T13:11:23.008Z,7.10
2018-06-18T13:13:51.537Z,3.67
2018-06-18T13:16:20.077Z,5.33
2018-06-18T13:18:48.607Z,4.57
2018-06-18T13:21:17.135Z,7.00
2018-06-18T13:23:45.651Z,2.37
2018-06-18T13:26:14.228Z,3.73
2018-06-18T13:28:42.790Z,4.73
2018-06-18T13:31:11.387Z,4.43
2018-06-18T13:33:40.037Z,4.97
2018-06-18T13:36:08.905Z,5.33
2018-06-18T13:38:43.101Z,4.73
2018-06-18T13:41:17.640Z,3.93
2018-06-18T13:43:51.331Z,4.13
2018-06-18T13:48:31.753Z,2.37
2018-06-18T13:51:00.373Z,5.37
2018-06-18T13:53:28.872Z,6.10
2018-06-18T13:55:57.330Z,4.07
2018-06-18T13:58:25.990Z,3.87
2018-06-18T14:00:55.019Z,7.43
2018-06-18T14:03:24.025Z,6.00
2018-06-18T14:05:52.830Z,10.00
2018-06-18T14:08:21.690Z,4.33
2018-06-18T14:10:50.510Z,3.93
2018-06-18T14:13:19.046Z,2.83
2018-06-18T14:15:47.809Z,4.10
2018-06-18T14:18:16.461Z,5.33
2018-06-18T14:20:45.147Z,3.37
2018-06-18T14:23:13.802Z,4.80
2018-06-18T14:25:42.417Z,3.53
2018-06-18T14:28:10.937Z,3.13
2018-06-18T14:30:44.564Z,4.07
2018-06-18T14:33:18.427Z,2.53
2018-06-18T14:35:52.557Z,4.67
2018-06-18T14:38:26.328Z,2.27
2018-06-18T14:40:54.963Z,3.37
2018-06-18T14:43:23.701Z,8.50
2018-06-18T14:45:52.900Z,4.62
2018-06-18T14:48:21.646Z,2.97
2018-06-18T14:50:50.101Z,4.83
2018-06-18T14:53:18.688Z,5.23
2018-06-18T14:55:51.952Z,2.80
2018-06-18T14:58:20.537Z,4.00
2018-06-18T15:00:49.612Z,6.30
2018-06-18T15:03:18.147Z,5.07
2018-06-18T15:05:46.655Z,8.50
2018-06-18T15:08:15.347Z,5.27
2018-06-18T15:10:50.604Z,5.30
2018-06-18T15:13:19.267Z,6.03
2018-06-18T15:15:54.264Z,3.87
2018-06-18T15:18:22.793Z,4.00
2018-06-18T15:20:52.838Z,4.13
2018-06-18T15:23:21.374Z,5.87
2018-06-18T15:25:51.695Z,3.23
2018-06-18T15:28:20.266Z,7.05
2018-06-18T15:30:49.053Z,5.28
2018-06-18T15:33:18.196Z,13.10
2018-06-18T15:35:46.851Z,6.73
2018-06-18T15:38:15.619Z,4.53
2018-06-18T15:40:44.190Z,3.47
2018-06-18T15:43:12.871Z,3.72
2018-06-18T15:45:42.306Z,3.70
2018-06-18T15:48:10.825Z,6.07
2018-06-18T15:50:39.385Z,4.13
2018-06-18T15:53:07.920Z,2.93
2018-06-18T15:55:36.511Z,7.33
2018-06-18T15:58:05.058Z,4.50
2018-06-18T16:00:33.573Z,8.57
2018-06-18T16:03:02.201Z,4.47
2018-06-18T16:05:30.813Z,4.50
2018-06-18T16:07:59.599Z,4.83
2018-06-18T16:10:28.075Z,3.80
2018-06-18T16:12:56.881Z,4.77
2018-06-18T16:15:25.386Z,5.77
2018-06-18T16:17:54.054Z,3.80
2018-06-18T16:20:22.775Z,4.57
2018-06-18T16:22:51.501Z,7.67
2018-06-18T16:25:20.161Z,5.23
2018-06-18T16:27:48.799Z,5.83
2018-06-18T16:30:17.361Z,5.53
2018-06-18T16:32:46.157Z,5.43
2018-06-18T16:35:14.764Z,6.37
2018-06-18T16:37:43.705Z,4.70
2018-06-18T16:40:12.646Z,6.83
2018-06-18T16:42:41.436Z,4.17
2018-06-18T16:45:10.114Z,3.90
2018-06-18T16:47:39.158Z,3.40
2018-06-18T16:50:07.790Z,4.57
2018-06-18T16:52:36.966Z,5.20
2018-06-18T16:55:05.674Z,3.63
2018-06-18T16:57:34.301Z,7.70
2018-06-18T17:00:03.184Z,5.63
2018-06-18T17:02:31.806Z,6.40
2018-06-18T17:05:01.992Z,6.00
2018-06-18T17:07:30.699Z,4.77
2018-06-18T17:09:59.386Z,6.13
2018-06-18T17:12:28.691Z,4.17
2018-06-18T17:14:57.502Z,5.73
2018-06-18T17:17:26.234Z,3.03
2018-06-18T17:19:54.874Z,2.77
2018-06-18T17:22:23.903Z,3.73
2018-06-18T17:24:52.717Z,3.20
2018-06-18T17:27:21.277Z,5.50
2018-06-18T17:29:49.889Z,2.40
2018-06-18T17:32:19.723Z,3.97
2018-06-18T17:34:48.220Z,2.80
2018-06-18T17:37:16.795Z,2.70
2018-06-18T17:39:45.577Z,3.33
2018-06-18T17:42:14.212Z,7.63
2018-06-18T17:44:42.765Z,2.70
2018-06-18T17:47:12.231Z,4.00
2018-06-18T17:49:41.055Z,2.30
2018-06-18T17:52:09.796Z,6.10
2018-06-18T17:54:38.352Z,2.80
2018-06-18T17:57:07.814Z,5.33
2018-06-18T17:59:37.103Z,4.80
2018-06-18T18:02:05.624Z,4.77
2018-06-18T18:04:34.717Z,8.53
2018-06-18T18:07:03.607Z,4.77
2018-06-18T18:09:32.145Z,2.93
2018-06-18T18:12:00.703Z,2.97
2018-06-18T18:14:29.459Z,2.27
2018-06-18T18:16:58.438Z,3.40
2018-06-18T18:19:27.390Z,2.27
2018-06-18T18:21:58.857Z,2.90
2018-06-18T18:24:27.929Z,4.97
2018-06-18T18:26:56.781Z,2.87
2018-06-18T18:29:25.398Z,7.00
2018-06-18T18:31:54.256Z,3.80
2018-06-18T18:34:23.145Z,3.77
2018-06-18T18:36:51.645Z,4.50
2018-06-18T18:39:20.188Z,3.13
2018-06-18T18:41:48.839Z,3.43
2018-06-18T18:44:17.529Z,4.77
2018-06-18T18:46:49.400Z,6.37
2018-06-18T18:49:18.330Z,7.80
2018-06-18T18:51:48.119Z,4.67
2018-06-18T18:56:34.457Z,3.33
2018-06-18T18:59:14.188Z,3.90
2018-06-18T19:01:43.000Z,5.57
2018-06-18T19:04:14.730Z,3.30
2018-06-18T19:06:43.282Z,3.40
2018-06-18T19:09:12.971Z,4.63
2018-06-18T19:11:41.624Z,3.27
2018-06-18T19:14:10.409Z,5.53
2018-06-18T19:16:39.290Z,4.83
2018-06-18T19:19:08.116Z,6.67
2018-06-18T19:21:36.894Z,3.27
2018-06-18T19:24:05.719Z,6.40
2018-06-18T19:26:34.473Z,3.00
2018-06-18T19:29:03.346Z,4.13
2018-06-18T19:31:32.272Z,4.53
2018-06-18T19:34:11.573Z,5.57
2018-06-18T19:36:46.761Z,4.70
2018-06-18T19:39:15.380Z,4.90
2018-06-18T19:41:44.194Z,5.67
2018-06-18T19:44:13.128Z,3.17
2018-06-18T19:47:48.558Z,8.07
2018-06-18T19:50:17.702Z,5.07
2018-06-18T19:52:46.497Z,5.30
2018-06-18T19:55:20.097Z,3.03
2018-06-18T19:57:48.937Z,2.80
2018-06-18T20:00:17.744Z,5.00
2018-06-18T20:02:46.643Z,3.70
2018-06-18T20:05:17.697Z,6.50
2018-06-18T20:08:04.405Z,4.90
2018-06-18T20:10:36.247Z,4.60
2018-06-18T20:13:07.140Z,6.73
2018-06-18T20:15:38.586Z,6.30
2018-06-18T20:18:10.563Z,5.97
2018-06-18T20:20:41.997Z,3.57
2018-06-18T20:26:22.549Z,5.03
2018-06-18T20:28:54.748Z,4.63
2018-06-18T20:31:26.439Z,3.23
2018-06-18T20:34:00.616Z,4.50
2018-06-18T20:36:32.368Z,5.90
2018-06-18T20:39:04.170Z,5.57
2018-06-18T20:41:36.283Z,4.43
2018-06-18T20:44:15.060Z,3.30
2018-06-18T20:46:46.597Z,7.03
2018-06-18T20:49:20.968Z,8.17
2018-06-18T20:51:54.173Z,3.70
2018-06-18T20:54:27.210Z,4.80
2018-06-18T20:56:59.992Z,5.03
2018-06-18T20:59:31.635Z,4.27
2018-06-18T21:02:04.589Z,4.10
2018-06-18T21:04:37.094Z,5.43
2018-06-18T21:07:10.477Z,3.10
2018-06-18T21:09:44.683Z,3.93
2018-06-18T21:12:16.988Z,5.90
2018-06-18T21:14:49.662Z,3.37
2018-06-18T21:17:21.744Z,3.07
2018-06-18T21:19:52.763Z,3.93
2018-06-18T21:22:23.999Z,5.17
2018-06-18T21:24:55.558Z,4.37
2018-06-18T21:27:27.111Z,2.80
2018-06-18T21:29:59.007Z,2.43
2018-06-18T21:32:32.497Z,2.30
2018-06-18T21:35:04.212Z,2.83
2018-06-18T21:37:34.935Z,3.10
2018-06-18T21:40:07.405Z,3.37
2018-06-18T21:42:39.512Z,5.17
2018-06-18T21:45:17.116Z,5.07
2018-06-18T21:47:49.394Z,3.23
2018-06-18T21:50:20.700Z,2.13
2018-06-18T21:52:53.649Z,2.50
2018-06-18T21:55:25.247Z,4.40
2018-06-18T21:57:54.263Z,4.00
2018-06-18T22:00:28.703Z,5.30
2018-06-18T22:02:57.485Z,3.50
2018-06-18T22:05:26.232Z,3.30
2018-06-18T22:07:55.876Z,3.73
2018-06-18T22:10:24.449Z,2.53
2018-06-18T22:12:53.390Z,4.27
2018-06-18T22:15:22.295Z,4.10
2018-06-18T22:17:51.086Z,2.87
2018-06-18T22:20:20.365Z,3.93
2018-06-18T22:22:48.970Z,3.10
2018-06-18T22:25:17.565Z,3.10
2018-06-18T22:27:46.149Z,2.90
2018-06-18T22:30:14.768Z,4.80
2018-06-18T22:32:43.326Z,3.23
2018-06-18T22:35:12.107Z,6.53
2018-06-18T22:37:40.689Z,4.50
2018-06-18T22:40:09.660Z,4.60
2018-06-18T22:42:38.262Z,5.30
2018-06-18T22:45:09.469Z,6.90
2018-06-18T22:47:38.109Z,3.87
2018-06-18T22:50:07.332Z,2.87
2018-06-18T22:52:35.976Z,3.93
2018-06-18T22:55:04.833Z,4.27
2018-06-18T22:57:33.291Z,3.03
2018-06-18T23:00:01.982Z,5.73
2018-06-18T23:02:32.383Z,4.83
2018-06-18T23:05:01.323Z,10.20
2018-06-18T23:07:30.234Z,4.23
2018-06-18T23:09:59.056Z,7.43
2018-06-18T23:12:32.729Z,6.20
2018-06-18T23:15:01.377Z,4.03
2018-06-18T23:17:30.109Z,6.50
2018-06-18T23:19:58.781Z,3.70
2018-06-18T23:22:27.414Z,5.03
2018-06-18T23:24:56.007Z,6.93
2018-06-18T23:27:24.630Z,5.70
2018-06-18T23:29:53.738Z,4.80
2018-06-18T23:32:22.432Z,6.50
2018-06-18T23:34:50.989Z,7.30
2018-06-18T23:37:19.599Z,6.03
2018-06-18T23:39:48.896Z,5.77
2018-06-18T23:42:17.713Z,5.90
2018-06-18T23:44:46.569Z,4.50
2018-06-18T23:47:15.420Z,5.27
2018-06-18T23:49:45.921Z,4.10
2018-06-18T23:52:14.755Z,8.67
2018-06-18T23:54:43.298Z,5.03
2018-06-18T23:57:11.903Z,5.07
2018-06-18T23:59:40.641Z,5.23
